Time;durP1;ratioP1;P1;durP2;ratioP2;P2;SDS_P1;SDS_P2;PMS_P1;PMS_P2;Temp;Humidity;BMP_temperature;BMP_pressure;BME280_temperature;BME280_humidity;BME280_pressure;Samples;Min_cycle;Max_cycle;Signal;HPM_P1;HPM_P2
2024/01/17 00:00:16;;;;;;;18.90;6.95;;;5.50;99.90;;;;;;5024743;28;20036;-85
2024/01/17 00:02:41;;;;;;;12.30;6.25;;;5.50;99.90;;;;;;5034401;28;20494;-85
2024/01/17 00:05:10;;;;;;;20.88;7.38;;;5.50;99.90;;;;;;5010005;28;20033;-85
2024/01/17 00:07:36;;;;;;;15.30;7.13;;;5.50;99.90;;;;;;5033180;28;20017;-84
2024/01/17 00:10:01;;;;;;;14.05;6.82;;;5.50;99.90;;;;;;5023100;28;20109;-83
2024/01/17 00:12:27;;;;;;;24.67;7.72;;;5.50;99.90;;;;;;5036187;28;20045;-84
2024/01/17 00:14:52;;;;;;;20.15;7.45;;;5.50;99.90;;;;;;5036310;28;20013;-85
2024/01/17 00:17:18;;;;;;;13.80;6.18;;;5.50;99.90;;;;;;5030341;28;20451;-85
2024/01/17 00:19:45;;;;;;;18.85;8.00;;;5.50;99.90;;;;;;5015221;28;20471;-86
2024/01/17 00:22:11;;;;;;;17.17;7.72;;;5.50;99.90;;;;;;5036476;28;20505;-85
2024/01/17 00:24:36;;;;;;;16.65;6.55;;;5.50;99.90;;;;;;5017557;28;20018;-84
2024/01/17 00:27:04;;;;;;;18.05;7.50;;;5.50;99.90;;;;;;5014983;28;20040;-83
2024/01/17 00:29:31;;;;;;;33.30;6.28;;;5.50;99.90;;;;;;5035590;28;20112;-84
2024/01/17 00:31:56;;;;;;;15.75;6.57;;;5.50;99.90;;;;;;5033596;28;20017;-84
2024/01/17 00:34:22;;;;;;;22.15;7.63;;;5.50;99.90;;;;;;5040903;28;20032;-84
2024/01/17 00:36:47;;;;;;;16.98;7.30;;;5.50;99.90;;;;;;5044917;28;20052;-84
2024/01/17 00:39:13;;;;;;;17.30;7.57;;;5.50;99.90;;;;;;5016731;28;20030;-84
2024/01/17 00:41:40;;;;;;;15.85;6.53;;;5.50;99.90;;;;;;5034435;28;20041;-84
2024/01/17 00:44:05;;;;;;;15.55;7.25;;;5.50;99.90;;;;;;5026230;28;20018;-84
2024/01/17 00:46:31;;;;;;;17.55;8.10;;;5.50;99.90;;;;;;5015810;28;20028;-83
2024/01/17 00:48:57;;;;;;;13.82;6.80;;;5.50;99.90;;;;;;5035008;28;20434;-84
2024/01/17 00:51:25;;;;;;;16.63;7.22;;;5.50;99.90;;;;;;5017594;28;20488;-85
2024/01/17 00:53:53;;;;;;;19.95;7.03;;;5.50;99.90;;;;;;5041304;28;20053;-84
2024/01/17 00:56:18;;;;;;;28.13;8.60;;;5.50;99.90;;;;;;5016246;28;20022;-84
2024/01/17 00:58:44;;;;;;;13.85;7.38;;;5.50;99.90;;;;;;5038877;28;20025;-84
2024/01/17 01:01:09;;;;;;;16.55;7.18;;;5.50;99.90;;;;;;5014936;28;20045;-85
2024/01/17 01:03:35;;;;;;;15.43;7.20;;;5.50;99.90;;;;;;5035526;28;20027;-83
2024/01/17 01:06:00;;;;;;;25.17;7.63;;;5.50;99.90;;;;;;5017965;28;20053;-83
2024/01/17 01:08:26;;;;;;;16.38;7.40;;;5.50;99.90;;;;;;5032274;28;20053;-83
2024/01/17 01:10:51;;;;;;;18.90;7.32;;;5.50;99.90;;;;;;5018117;28;20049;-84
2024/01/17 01:13:17;;;;;;;17.90;6.90;;;5.50;99.90;;;;;;5020378;28;20056;-84
2024/01/17 01:15:42;;;;;;;18.52;7.25;;;5.50;99.90;;;;;;5017427;28;20017;-84
2024/01/17 01:18:08;;;;;;;16.73;8.25;;;5.50;99.90;;;;;;5030423;28;20080;-84
2024/01/17 01:20:33;;;;;;;18.65;7.72;;;5.50;99.90;;;;;;5037626;28;20037;-83
2024/01/17 01:22:59;;;;;;;14.95;7.38;;;5.50;99.90;;;;;;5022920;28;20025;-83
2024/01/17 01:25:25;;;;;;;14.02;6.75;;;5.50;99.90;;;;;;5020654;28;20033;-83
2024/01/17 01:27:51;;;;;;;19.83;7.03;;;5.50;99.90;;;;;;5013971;28;20025;-84
2024/01/17 01:30:17;;;;;;;17.02;7.63;;;5.50;99.90;;;;;;5034058;28;20087;-83
2024/01/17 01:32:42;;;;;;;19.30;7.80;;;5.50;99.90;;;;;;5010659;28;20053;-85
2024/01/17 01:35:08;;;;;;;25.60;7.07;;;5.50;99.90;;;;;;5033869;28;20574;-83
2024/01/17 01:37:33;;;;;;;21.27;6.95;;;5.50;99.90;;;;;;5016119;28;20092;-83
2024/01/17 01:39:59;;;;;;;19.73;7.20;;;5.50;99.90;;;;;;5020065;28;20048;-84
2024/01/17 01:42:24;;;;;;;16.10;7.15;;;5.50;99.90;;;;;;5018329;28;20037;-83
2024/01/17 01:44:50;;;;;;;22.20;7.05;;;5.50;99.90;;;;;;5016963;28;20461;-83
2024/01/17 01:47:16;;;;;;;18.67;6.78;;;5.50;99.90;;;;;;5015791;28;20025;-83
2024/01/17 01:49:42;;;;;;;16.08;7.00;;;5.50;99.90;;;;;;5034244;28;20017;-84
2024/01/17 01:52:08;;;;;;;21.00;7.57;;;5.50;99.90;;;;;;5033239;28;20033;-84
2024/01/17 01:54:36;;;;;;;20.92;7.50;;;5.50;99.90;;;;;;5012431;28;20026;-83
2024/01/17 01:57:03;;;;;;;15.52;7.07;;;5.50;99.90;;;;;;5036424;28;20013;-84
2024/01/17 01:59:29;;;;;;;18.33;7.20;;;5.50;99.90;;;;;;5016618;28;20025;-84
2024/01/17 02:01:54;;;;;;;15.82;7.07;;;5.50;99.90;;;;;;5034470;28;20083;-84
2024/01/17 02:04:21;;;;;;;16.17;7.07;;;5.50;99.90;;;;;;5014564;28;20475;-84
2024/01/17 02:06:48;;;;;;;14.48;6.70;;;5.50;99.90;;;;;;5029949;28;20025;-84
2024/01/17 02:09:14;;;;;;;16.92;6.97;;;5.50;99.90;;;;;;5013486;28;20029;-84
2024/01/17 02:11:40;;;;;;;15.52;6.90;;;5.50;99.90;;;;;;5031934;28;20037;-84
2024/01/17 02:14:05;;;;;;;15.85;7.68;;;5.50;99.90;;;;;;5033173;28;20033;-84
2024/01/17 02:16:33;;;;;;;17.85;6.60;;;5.50;99.90;;;;;;5017832;28;20091;-84
2024/01/17 02:18:58;;;;;;;18.67;6.82;;;5.50;99.90;;;;;;5013301;28;20117;-83
2024/01/17 02:21:26;;;;;;;17.92;7.60;;;5.50;99.90;;;;;;5013862;28;20117;-84
2024/01/17 02:23:52;;;;;;;16.67;7.10;;;5.50;99.90;;;;;;5042718;28;20566;-84
2024/01/17 02:26:18;;;;;;;17.95;7.68;;;5.50;99.90;;;;;;5013421;28;20483;-83
2024/01/17 02:28:43;;;;;;;16.65;7.47;;;5.50;99.90;;;;;;5017112;28;20024;-84
2024/01/17 02:31:10;;;;;;;18.48;7.15;;;5.50;99.90;;;;;;5029212;28;20034;-84
2024/01/17 02:33:36;;;;;;;15.38;8.07;;;5.50;99.90;;;;;;5021075;28;20079;-83
2024/01/17 02:36:02;;;;;;;17.73;7.28;;;5.50;99.90;;;;;;5016930;28;20018;-85
2024/01/17 02:38:28;;;;;;;12.15;7.05;;;5.50;99.90;;;;;;5016408;28;20041;-84
2024/01/17 02:40:53;;;;;;;17.05;7.18;;;5.50;99.90;;;;;;5031691;28;20037;-85
2024/01/17 02:43:19;;;;;;;18.92;7.80;;;5.50;99.90;;;;;;5015291;28;20032;-84
2024/01/17 02:45:45;;;;;;;19.67;7.95;;;5.50;99.90;;;;;;5008743;28;20017;-84
2024/01/17 02:48:10;;;;;;;21.95;8.32;;;5.50;99.90;;;;;;5012896;28;20403;-83
2024/01/17 02:50:36;;;;;;;16.02;8.02;;;5.50;99.90;;;;;;5038624;28;20017;-84
2024/01/17 02:53:02;;;;;;;15.52;7.55;;;5.40;99.90;;;;;;5034858;28;20021;-84
2024/01/17 02:55:27;;;;;;;24.15;8.43;;;5.50;99.90;;;;;;5015692;28;20117;-84
2024/01/17 02:57:53;;;;;;;19.30;7.95;;;5.50;99.90;;;;;;5017378;28;20037;-84
2024/01/17 03:00:19;;;;;;;19.58;7.97;;;5.50;99.90;;;;;;5017108;28;20029;-84
2024/01/17 03:02:45;;;;;;;18.45;8.50;;;5.50;99.90;;;;;;5040865;28;20061;-84
2024/01/17 03:05:11;;;;;;;18.80;9.35;;;5.50;99.90;;;;;;5039108;28;20455;-84
2024/01/17 03:07:36;;;;;;;19.42;8.88;;;5.50;99.90;;;;;;5035514;28;20113;-84
2024/01/17 03:10:02;;;;;;;17.23;7.97;;;5.50;99.90;;;;;;5032667;28;20017;-84
2024/01/17 03:12:28;;;;;;;24.00;8.00;;;5.50;99.90;;;;;;5014148;28;20032;-84
2024/01/17 03:14:54;;;;;;;20.73;9.13;;;5.50;99.90;;;;;;5037236;28;20096;-84
2024/01/17 03:17:19;;;;;;;19.80;9.18;;;5.50;99.90;;;;;;5016015;28;20349;-84
2024/01/17 03:19:48;;;;;;;22.20;8.85;;;5.50;99.90;;;;;;5012482;28;20022;-84
2024/01/17 03:22:17;;;;;;;20.20;8.18;;;5.50;99.90;;;;;;5016980;28;20025;-84
2024/01/17 03:24:45;;;;;;;17.25;8.07;;;5.50;99.90;;;;;;5016099;28;20030;-84
2024/01/17 03:27:12;;;;;;;24.65;9.50;;;5.50;99.90;;;;;;5015858;28;20064;-84
2024/01/17 03:29:37;;;;;;;18.33;8.73;;;5.50;99.90;;;;;;5017765;28;20029;-83
2024/01/17 03:32:03;;;;;;;21.83;8.57;;;5.50;99.90;;;;;;5032314;28;20745;-84
2024/01/17 03:34:28;;;;;;;15.13;7.68;;;5.50;99.90;;;;;;5024642;28;20116;-85
2024/01/17 03:36:54;;;;;;;25.52;8.77;;;5.50;99.90;;;;;;5018484;28;20109;-84
2024/01/17 03:39:21;;;;;;;13.77;7.88;;;5.50;99.90;;;;;;5017305;28;20121;-83
2024/01/17 03:41:46;;;;;;;20.42;8.00;;;5.50;99.90;;;;;;5018839;28;20110;-83
2024/01/17 03:44:12;;;;;;;20.48;7.72;;;5.50;99.90;;;;;;5021516;28;20702;-84
2024/01/17 03:46:37;;;;;;;21.77;8.88;;;5.50;99.90;;;;;;5016700;28;20407;-84
2024/01/17 03:49:03;;;;;;;19.58;8.25;;;5.50;99.90;;;;;;5016341;28;20021;-83
2024/01/17 03:51:28;;;;;;;16.35;8.98;;;5.50;99.90;;;;;;5032352;28;20396;-83
2024/01/17 03:53:54;;;;;;;19.52;8.82;;;5.50;99.90;;;;;;5015790;28;20479;-85
2024/01/17 03:56:19;;;;;;;20.13;8.73;;;5.50;99.90;;;;;;5015938;28;20028;-84
2024/01/17 03:58:45;;;;;;;19.88;8.82;;;5.50;99.90;;;;;;5015251;28;20022;-84
2024/01/17 04:01:11;;;;;;;18.50;9.30;;;5.50;99.90;;;;;;5016062;28;20479;-84
2024/01/17 04:03:37;;;;;;;23.52;9.05;;;5.50;99.90;;;;;;5017472;28;20029;-84
2024/01/17 04:06:03;;;;;;;21.20;9.93;;;5.50;99.90;;;;;;5032112;28;20045;-84
2024/01/17 04:08:29;;;;;;;21.30;9.50;;;5.50;99.90;;;;;;5015557;28;20113;-84
2024/01/17 04:10:54;;;;;;;21.60;9.10;;;5.50;99.90;;;;;;5029937;28;20028;-84
2024/01/17 04:13:20;;;;;;;23.73;8.55;;;5.50;99.90;;;;;;5029325;28;20109;-84
2024/01/17 04:15:45;;;;;;;21.92;9.23;;;5.50;99.90;;;;;;5020582;28;20617;-83
2024/01/17 04:18:11;;;;;;;19.63;8.82;;;5.50;99.90;;;;;;5034816;28;20032;-84
2024/01/17 04:20:36;;;;;;;16.33;8.63;;;5.50;99.90;;;;;;5015477;28;20051;-83
2024/01/17 04:23:06;;;;;;;17.50;8.13;;;5.50;99.90;;;;;;5011823;28;20021;-85
2024/01/17 04:25:31;;;;;;;16.58;7.43;;;5.50;99.90;;;;;;5023398;28;20372;-83
2024/01/17 04:27:57;;;;;;;21.38;8.65;;;5.50;99.90;;;;;;5037869;28;20079;-82
2024/01/17 04:30:23;;;;;;;19.08;9.40;;;5.50;99.90;;;;;;5018607;28;20531;-85
2024/01/17 04:32:48;;;;;;;18.35;8.23;;;5.50;99.90;;;;;;5032630;28;20021;-84
2024/01/17 04:35:21;;;;;;;15.98;7.75;;;5.50;99.90;;;;;;5032270;28;20014;-85
2024/01/17 04:37:46;;;;;;;17.85;9.05;;;5.50;99.90;;;;;;5017338;28;20022;-84
2024/01/17 04:40:12;;;;;;;18.23;8.18;;;5.50;99.90;;;;;;5018459;28;20055;-85
2024/01/17 04:42:38;;;;;;;23.67;8.50;;;5.50;99.90;;;;;;5039811;28;20082;-84
2024/01/17 04:45:04;;;;;;;17.55;9.15;;;5.50;99.90;;;;;;5022980;28;20036;-84
2024/01/17 04:47:30;;;;;;;19.15;8.65;;;5.50;99.90;;;;;;5017915;28;20017;-84
2024/01/17 04:49:56;;;;;;;19.27;9.32;;;5.50;99.90;;;;;;5034372;28;20071;-84
2024/01/17 04:52:22;;;;;;;16.58;7.93;;;5.50;99.90;;;;;;5032876;28;20093;-84
2024/01/17 04:54:48;;;;;;;20.10;8.73;;;5.50;99.90;;;;;;5034514;28;20026;-84
2024/01/17 04:57:14;;;;;;;21.92;9.65;;;5.50;99.90;;;;;;5037497;28;20025;-83
2024/01/17 04:59:40;;;;;;;16.58;7.93;;;5.50;99.90;;;;;;5032862;28;20078;-84
2024/01/17 05:02:06;;;;;;;25.20;8.35;;;5.50;99.90;;;;;;5034348;28;20052;-83
2024/01/17 05:04:31;;;;;;;24.15;9.85;;;5.50;99.90;;;;;;5011746;28;20018;-85
2024/01/17 05:06:57;;;;;;;17.23;8.27;;;5.50;99.90;;;;;;5015010;28;20025;-84
2024/01/17 05:09:22;;;;;;;20.00;9.63;;;5.50;99.90;;;;;;5016443;28;20141;-85
2024/01/17 05:11:48;;;;;;;25.98;8.68;;;5.50;99.90;;;;;;5015828;28;20473;-85
2024/01/17 05:14:17;;;;;;;20.10;8.73;;;5.50;99.90;;;;;;5032447;28;20504;-84
2024/01/17 05:16:42;;;;;;;20.25;8.70;;;5.50;99.90;;;;;;5021732;28;20071;-84
2024/01/17 05:19:08;;;;;;;25.83;9.50;;;5.50;99.90;;;;;;5012670;28;20029;-85
2024/01/17 05:21:34;;;;;;;24.05;8.95;;;5.50;99.90;;;;;;5017247;28;20108;-85
2024/01/17 05:23:59;;;;;;;23.90;10.07;;;5.50;99.90;;;;;;5031806;28;20053;-84
2024/01/17 05:26:25;;;;;;;20.17;9.95;;;5.50;99.90;;;;;;5031988;28;20093;-84
2024/01/17 05:28:51;;;;;;;26.10;10.40;;;5.50;99.90;;;;;;5014227;28;20057;-84
2024/01/17 05:31:17;;;;;;;30.85;9.65;;;5.50;99.90;;;;;;5021499;28;20017;-84
2024/01/17 05:33:44;;;;;;;20.33;9.70;;;5.50;99.90;;;;;;5022321;28;20030;-85
2024/01/17 05:36:09;;;;;;;20.13;9.52;;;5.50;99.90;;;;;;5029385;28;20028;-85
2024/01/17 05:38:35;;;;;;;23.35;9.05;;;5.50;99.90;;;;;;5023351;28;20026;-85
2024/01/17 05:41:01;;;;;;;20.55;9.90;;;5.50;99.90;;;;;;5013796;28;20087;-84
2024/01/17 05:43:26;;;;;;;21.15;9.32;;;5.50;99.90;;;;;;5033232;28;20026;-83
2024/01/17 05:45:52;;;;;;;22.75;10.38;;;5.50;99.90;;;;;;5015618;28;20058;-83
2024/01/17 05:48:17;;;;;;;19.50;10.02;;;5.50;99.90;;;;;;5019317;28;20029;-83
2024/01/17 05:50:44;;;;;;;21.58;8.85;;;5.50;99.90;;;;;;5010654;28;20022;-84
2024/01/17 05:53:10;;;;;;;18.52;8.55;;;5.50;99.90;;;;;;5019751;28;20017;-84
2024/01/17 05:55:36;;;;;;;21.42;10.23;;;5.50;99.90;;;;;;5016284;28;20036;-84
2024/01/17 05:58:01;;;;;;;23.75;9.52;;;5.50;99.90;;;;;;5029723;28;20395;-84
2024/01/17 06:00:27;;;;;;;24.13;10.05;;;5.50;99.90;;;;;;5031318;28;20056;-84
2024/01/17 06:02:52;;;;;;;20.75;9.52;;;5.50;99.90;;;;;;5029281;28;20025;-84
2024/01/17 06:05:19;;;;;;;21.00;10.55;;;5.50;99.90;;;;;;5033610;28;20037;-84
2024/01/17 06:07:44;;;;;;;19.77;10.23;;;5.50;99.90;;;;;;5014041;28;20115;-84
2024/01/17 06:10:13;;;;;;;24.25;10.40;;;5.50;99.90;;;;;;5015432;28;20018;-85
2024/01/17 06:12:40;;;;;;;23.02;11.23;;;5.50;99.90;;;;;;5014448;28;20029;-83
2024/01/17 06:15:06;;;;;;;23.88;10.60;;;5.60;99.90;;;;;;5016413;28;20029;-84
2024/01/17 06:17:32;;;;;;;22.75;10.68;;;5.60;99.90;;;;;;5037497;28;20030;-84
2024/01/17 06:19:57;;;;;;;24.40;9.85;;;5.60;99.90;;;;;;5016526;28;20032;-84
2024/01/17 06:22:23;;;;;;;24.58;10.75;;;5.50;99.90;;;;;;5036584;28;20028;-85
2024/01/17 06:24:49;;;;;;;22.38;10.15;;;5.60;99.90;;;;;;5013670;28;20021;-85
2024/01/17 06:27:15;;;;;;;24.90;11.43;;;5.50;99.90;;;;;;5031789;28;20104;-84
2024/01/17 06:29:41;;;;;;;20.65;10.73;;;5.60;99.90;;;;;;5029826;28;20414;-83
2024/01/17 06:32:07;;;;;;;21.83;11.00;;;5.50;99.90;;;;;;5008412;28;20029;-84
2024/01/17 06:34:32;;;;;;;23.92;11.00;;;5.60;99.90;;;;;;5012553;28;20043;-84
2024/01/17 06:36:58;;;;;;;28.80;12.15;;;5.60;99.90;;;;;;5031290;28;20021;-83
2024/01/17 06:39:24;;;;;;;24.70;10.93;;;5.50;99.90;;;;;;5012804;28;20025;-83
2024/01/17 06:41:50;;;;;;;26.42;11.90;;;5.60;99.90;;;;;;5013475;28;20030;-82
2024/01/17 06:44:15;;;;;;;22.75;10.32;;;5.60;99.90;;;;;;5029864;28;20051;-82
2024/01/17 06:46:41;;;;;;;20.20;10.70;;;5.60;99.90;;;;;;5010278;28;20052;-83
2024/01/17 06:49:07;;;;;;;27.23;11.35;;;5.60;99.90;;;;;;5027988;28;20028;-83
2024/01/17 06:51:32;;;;;;;26.58;10.80;;;5.60;99.90;;;;;;5030120;28;20026;-83
2024/01/17 06:53:58;;;;;;;24.30;10.70;;;5.60;99.90;;;;;;5014289;28;20025;-83
2024/01/17 06:56:24;;;;;;;26.38;11.38;;;5.60;99.90;;;;;;5027478;28;20511;-83
2024/01/17 06:58:49;;;;;;;22.25;9.85;;;5.60;99.90;;;;;;5025897;28;20041;-83
2024/01/17 07:01:15;;;;;;;21.63;11.00;;;5.60;99.90;;;;;;5027857;28;20025;-84
2024/01/17 07:03:41;;;;;;;19.65;10.35;;;5.60;99.90;;;;;;5012414;28;20029;-82
2024/01/17 07:06:07;;;;;;;22.13;10.90;;;5.60;99.90;;;;;;5031696;28;20049;-83
2024/01/17 07:08:33;;;;;;;23.08;11.45;;;5.60;99.90;;;;;;5030472;28;20440;-83
2024/01/17 07:10:58;;;;;;;22.58;10.73;;;5.60;99.90;;;;;;5011740;28;20160;-84
2024/01/17 07:13:24;;;;;;;22.27;10.48;;;5.60;99.90;;;;;;5027123;28;20484;-83
2024/01/17 07:15:50;;;;;;;24.30;10.30;;;5.60;99.90;;;;;;5011550;28;20029;-82
2024/01/17 07:18:15;;;;;;;27.05;11.23;;;5.60;99.90;;;;;;5013585;28;20025;-82
2024/01/17 07:20:41;;;;;;;19.52;10.02;;;5.60;99.90;;;;;;5012651;28;20112;-83
2024/01/17 07:23:08;;;;;;;25.00;9.82;;;5.60;99.90;;;;;;5011340;28;20024;-83
2024/01/17 07:25:34;;;;;;;23.30;10.85;;;5.60;99.90;;;;;;5012577;28;20025;-83
2024/01/17 07:28:00;;;;;;;24.48;10.15;;;5.60;99.90;;;;;;5009174;28;20376;-82
2024/01/17 07:30:26;;;;;;;24.38;10.43;;;5.60;99.90;;;;;;5011417;28;20056;-83
2024/01/17 07:32:52;;;;;;;18.42;10.18;;;5.60;99.90;;;;;;5027162;28;20550;-83
2024/01/17 07:35:17;;;;;;;23.17;10.80;;;5.60;99.90;;;;;;5027785;28;20475;-84
2024/01/17 07:37:43;;;;;;;21.13;10.52;;;5.60;99.90;;;;;;5023272;28;20025;-83
2024/01/17 07:40:09;;;;;;;23.80;10.88;;;5.60;99.90;;;;;;5007855;28;20030;-82
2024/01/17 07:42:35;;;;;;;22.30;10.00;;;5.60;99.90;;;;;;5029630;28;20048;-84
2024/01/17 07:45:00;;;;;;;23.90;10.52;;;5.60;99.90;;;;;;5012376;28;20491;-83
2024/01/17 07:47:26;;;;;;;19.17;9.65;;;5.60;99.90;;;;;;5015763;28;20113;-83
2024/01/17 07:49:52;;;;;;;20.73;9.77;;;5.60;99.90;;;;;;5027866;28;20021;-82
2024/01/17 07:52:17;;;;;;;22.35;10.75;;;5.60;99.90;;;;;;5016828;28;20018;-83
2024/01/17 07:54:43;;;;;;;19.35;9.93;;;5.60;99.90;;;;;;5032567;28;20420;-83
2024/01/17 07:57:08;;;;;;;21.98;10.52;;;5.60;99.90;;;;;;5029792;28;20017;-83
2024/01/17 07:59:34;;;;;;;23.20;10.40;;;5.60;99.90;;;;;;5012828;28;20029;-85
2024/01/17 08:01:59;;;;;;;21.15;10.63;;;5.60;99.90;;;;;;5011779;28;20022;-82
2024/01/17 08:04:25;;;;;;;20.60;9.40;;;5.60;99.90;;;;;;5025831;28;20025;-82
2024/01/17 08:06:51;;;;;;;22.48;11.05;;;5.60;99.90;;;;;;5006787;28;20065;-82
2024/01/17 08:09:24;;;;;;;22.10;10.05;;;5.60;99.90;;;;;;5013172;28;20116;-82
2024/01/17 08:11:54;;;;;;;27.77;11.07;;;5.60;99.90;;;;;;5026140;28;20029;-83
2024/01/17 08:14:20;;;;;;;20.27;9.55;;;5.60;99.90;;;;;;5009185;28;20502;-83
2024/01/17 08:16:47;;;;;;;25.05;10.20;;;5.60;99.90;;;;;;5011297;28;20380;-82
2024/01/17 08:19:13;;;;;;;27.33;9.88;;;5.60;99.90;;;;;;5014644;28;20104;-83
2024/01/17 08:21:38;;;;;;;24.88;10.30;;;5.60;99.90;;;;;;5031714;28;20116;-85
2024/01/17 08:24:04;;;;;;;23.13;10.43;;;5.60;99.90;;;;;;5015146;28;20113;-82
2024/01/17 08:26:30;;;;;;;19.48;9.90;;;5.60;99.90;;;;;;5014206;28;20487;-82
2024/01/17 08:28:56;;;;;;;20.00;9.50;;;5.60;99.90;;;;;;5010911;28;20021;-82
2024/01/17 08:31:22;;;;;;;21.38;10.38;;;5.60;99.90;;;;;;5014160;28;20100;-84
2024/01/17 08:33:49;;;;;;;20.70;10.07;;;5.60;99.90;;;;;;5015283;28;20108;-83
2024/01/17 08:36:15;;;;;;;22.30;9.90;;;5.60;99.90;;;;;;5014275;28;20052;-83
2024/01/17 08:38:41;;;;;;;23.85;11.18;;;5.60;99.90;;;;;;5014565;28;20511;-84
2024/01/17 08:41:07;;;;;;;26.90;10.65;;;5.60;99.90;;;;;;5023050;28;20029;-83
2024/01/17 08:43:33;;;;;;;21.17;9.82;;;5.60;99.90;;;;;;5032283;28;20036;-82
2024/01/17 08:46:00;;;;;;;18.00;9.23;;;5.60;99.90;;;;;;5014216;28;20109;-82
2024/01/17 08:48:26;;;;;;;26.45;10.35;;;5.60;99.90;;;;;;5010546;28;20017;-85
2024/01/17 08:50:52;;;;;;;22.30;10.00;;;5.60;99.90;;;;;;5012808;28;20075;-84
2024/01/17 08:53:17;;;;;;;23.13;9.43;;;5.60;99.90;;;;;;5008682;28;20057;-83
2024/01/17 08:55:43;;;;;;;19.92;9.57;;;5.60;99.90;;;;;;5012879;28;20029;-83
2024/01/17 08:58:08;;;;;;;20.42;9.38;;;5.60;99.90;;;;;;5029042;28;20017;-83
2024/01/17 09:00:34;;;;;;;23.45;10.70;;;5.60;99.90;;;;;;5011200;28;20018;-84
2024/01/17 09:02:59;;;;;;;19.17;10.32;;;5.70;99.90;;;;;;5027416;28;20033;-83
2024/01/17 09:05:25;;;;;;;23.00;10.68;;;5.60;99.90;;;;;;5028726;28;20025;-82
2024/01/17 09:07:50;;;;;;;23.73;10.88;;;5.60;99.90;;;;;;5013543;28;20022;-84
2024/01/17 09:10:17;;;;;;;25.23;10.95;;;5.60;99.90;;;;;;5012135;28;20509;-83
2024/01/17 09:12:43;;;;;;;27.10;10.23;;;5.60;99.90;;;;;;5028672;28;20013;-85
2024/01/17 09:15:09;;;;;;;20.23;10.70;;;5.60;99.90;;;;;;5011294;28;20538;-84
2024/01/17 09:17:35;;;;;;;23.38;10.57;;;5.60;99.90;;;;;;5025172;28;20100;-82
2024/01/17 09:20:01;;;;;;;20.63;9.52;;;5.60;99.90;;;;;;5025587;28;20147;-83
2024/01/17 09:22:26;;;;;;;22.20;10.43;;;5.70;99.90;;;;;;5012515;28;20017;-84
2024/01/17 09:24:52;;;;;;;23.27;10.10;;;5.60;99.90;;;;;;5030157;28;20523;-82
2024/01/17 09:27:18;;;;;;;26.67;10.82;;;5.60;99.90;;;;;;5009706;28;20458;-83
2024/01/17 09:29:45;;;;;;;23.63;10.73;;;5.60;99.90;;;;;;5009885;28;20091;-83
2024/01/17 09:32:12;;;;;;;23.60;11.68;;;5.70;99.90;;;;;;5012467;28;20398;-83
2024/01/17 09:34:38;;;;;;;29.55;12.32;;;5.60;99.90;;;;;;5029774;28;20052;-82
2024/01/17 09:37:03;;;;;;;33.95;13.65;;;5.70;99.90;;;;;;5010790;28;20079;-83
2024/01/17 09:39:30;;;;;;;35.80;14.32;;;5.60;99.90;;;;;;5007874;28;20160;-83
2024/01/17 09:42:00;;;;;;;39.22;14.07;;;5.60;99.90;;;;;;5010810;28;20033;-83
2024/01/17 09:44:26;;;;;;;;;;;5.60;99.90;;;;;;5006604;28;20148;-82
2024/01/17 09:46:52;;;;;;;37.00;11.75;;;5.60;99.90;;;;;;5035818;28;19905;-83
2024/01/17 09:49:18;;;;;;;31.67;12.68;;;5.60;99.90;;;;;;5028103;28;20108;-83
2024/01/17 09:51:44;;;;;;;36.20;14.27;;;5.60;99.90;;;;;;5027869;28;20067;-83
2024/01/17 09:54:10;;;;;;;28.25;13.40;;;5.60;99.90;;;;;;5009204;28;20041;-83
2024/01/17 09:56:41;;;;;;;27.77;12.35;;;5.60;99.90;;;;;;5026446;28;20021;-82
2024/01/17 09:59:14;;;;;;;25.17;12.07;;;5.60;99.90;;;;;;5017461;28;20021;-83
2024/01/17 10:01:40;;;;;;;23.83;11.13;;;5.60;99.90;;;;;;5029477;28;20040;-83
2024/01/17 10:04:07;;;;;;;36.35;12.20;;;5.60;99.90;;;;;;5009918;28;20025;-84
2024/01/17 10:06:34;;;;;;;31.25;12.95;;;5.60;99.90;;;;;;5024080;28;20045;-83
2024/01/17 10:09:00;;;;;;;25.35;11.65;;;5.60;99.90;;;;;;5026090;28;20458;-82
2024/01/17 10:11:25;;;;;;;23.70;10.45;;;5.60;99.90;;;;;;5015270;28;20602;-83
2024/01/17 10:13:51;;;;;;;22.52;11.23;;;5.70;99.90;;;;;;5027965;28;20100;-83
2024/01/17 10:16:17;;;;;;;28.02;10.93;;;5.60;99.90;;;;;;5012937;28;20052;-83
2024/01/17 10:18:42;;;;;;;23.38;10.93;;;5.60;99.90;;;;;;5005135;28;20022;-83
2024/01/17 10:21:08;;;;;;;20.38;9.90;;;5.60;99.90;;;;;;5025281;28;20038;-83
2024/01/17 10:23:37;;;;;;;22.85;10.35;;;5.60;99.90;;;;;;5014070;28;20026;-83
2024/01/17 10:26:02;;;;;;;23.25;10.40;;;5.60;99.90;;;;;;5025802;28;20036;-83
2024/01/17 10:28:32;;;;;;;23.70;10.50;;;5.70;99.90;;;;;;5016390;28;20037;-84
2024/01/17 10:31:01;;;;;;;21.17;10.45;;;5.60;99.90;;;;;;5010099;28;20030;-83
2024/01/17 10:33:27;;;;;;;21.52;10.50;;;5.60;99.90;;;;;;5016809;28;20033;-83
2024/01/17 10:35:52;;;;;;;23.42;10.65;;;5.70;99.90;;;;;;5027865;28;20048;-84
2024/01/17 10:38:18;;;;;;;20.42;9.82;;;5.70;99.90;;;;;;5012586;28;20088;-85
2024/01/17 10:40:44;;;;;;;25.27;10.68;;;5.70;99.90;;;;;;5013487;28;20056;-83
2024/01/17 10:43:10;;;;;;;24.88;10.55;;;5.60;99.90;;;;;;5026248;28;20493;-84
2024/01/17 10:45:42;;;;;;;22.25;9.98;;;5.60;99.90;;;;;;5017458;28;20059;-83
2024/01/17 10:48:08;;;;;;;22.02;10.95;;;5.70;99.90;;;;;;5030948;28;20418;-84
2024/01/17 10:50:34;;;;;;;17.25;9.40;;;5.70;99.90;;;;;;5030579;28;20021;-84
2024/01/17 10:53:05;;;;;;;19.33;9.48;;;5.70;99.90;;;;;;5010575;28;20072;-83
2024/01/17 10:55:34;;;;;;;19.33;9.18;;;5.70;99.90;;;;;;5026970;28;20029;-84
2024/01/17 10:58:05;;;;;;;17.95;9.02;;;5.70;99.90;;;;;;5008556;28;20030;-83
2024/01/17 11:00:33;;;;;;;19.65;8.93;;;5.70;99.90;;;;;;5014989;28;20089;-83
2024/01/17 11:02:59;;;;;;;19.95;9.13;;;5.70;99.90;;;;;;5008457;28;20026;-83
2024/01/17 11:05:33;;;;;;;17.15;9.45;;;5.70;99.90;;;;;;5013700;28;20029;-83
2024/01/17 11:07:59;;;;;;;20.83;8.85;;;5.70;99.90;;;;;;5009546;28;20033;-82
2024/01/17 11:10:27;;;;;;;20.80;8.35;;;5.70;99.90;;;;;;5026496;28;20088;-83
2024/01/17 11:12:53;;;;;;;20.40;9.02;;;5.70;99.90;;;;;;5016836;28;20017;-84
2024/01/17 11:15:19;;;;;;;16.45;8.68;;;5.70;99.90;;;;;;5030513;28;20025;-83
2024/01/17 11:17:46;;;;;;;19.17;9.13;;;5.70;99.90;;;;;;5013038;28;20037;-85
2024/01/17 11:20:15;;;;;;;16.92;9.98;;;5.70;99.90;;;;;;5027493;28;20085;-84
2024/01/17 11:22:41;;;;;;;19.95;8.80;;;5.70;99.90;;;;;;5008072;28;20025;-83
2024/01/17 11:25:27;;;;;;;20.77;8.85;;;5.70;99.90;;;;;;5015474;28;20037;-83
2024/01/17 11:28:15;;;;;;;17.88;9.18;;;5.70;99.90;;;;;;5011298;28;20495;-86
2024/01/17 11:31:06;;;;;;;18.13;8.70;;;5.70;99.90;;;;;;5034097;28;20464;-83
2024/01/17 11:33:32;;;;;;;20.83;9.75;;;5.70;99.90;;;;;;5026696;28;20627;-83
2024/01/17 11:35:59;;;;;;;18.13;8.70;;;5.70;99.90;;;;;;5017553;28;20024;-82
2024/01/17 11:38:24;;;;;;;16.48;8.25;;;5.70;99.90;;;;;;5017907;28;20029;-84
2024/01/17 11:40:57;;;;;;;16.63;8.77;;;5.70;99.90;;;;;;5033185;28;20037;-82
2024/01/17 11:43:31;;;;;;;16.45;8.57;;;5.70;99.90;;;;;;5028134;28;20018;-85
2024/01/17 11:45:59;;;;;;;19.02;9.43;;;5.70;99.90;;;;;;5014687;28;20029;-86
2024/01/17 11:48:29;;;;;;;18.92;9.85;;;5.70;99.90;;;;;;5018031;28;20029;-83
2024/01/17 11:51:01;;;;;;;17.85;8.95;;;5.70;99.90;;;;;;5018528;28;20516;-84
2024/01/17 11:53:28;;;;;;;19.58;9.50;;;5.70;99.90;;;;;;5014342;28;20645;-83
2024/01/17 11:55:56;;;;;;;17.35;9.32;;;5.70;99.90;;;;;;5018854;28;20064;-86
2024/01/17 11:58:22;;;;;;;20.05;9.73;;;5.70;99.90;;;;;;5012816;28;20492;-83
2024/01/17 12:00:53;;;;;;;17.95;8.95;;;5.70;99.90;;;;;;5032743;28;20063;-83
2024/01/17 12:03:30;;;;;;;18.02;8.68;;;5.70;99.90;;;;;;5037174;28;20033;-82
2024/01/17 12:05:55;;;;;;;20.20;9.48;;;5.70;99.90;;;;;;5031966;28;20032;-82
2024/01/17 12:08:21;;;;;;;23.27;9.85;;;5.70;99.90;;;;;;5026710;28;20440;-84
2024/01/17 12:10:53;;;;;;;15.68;8.52;;;5.70;99.90;;;;;;5011940;28;20057;-84
2024/01/17 12:13:18;;;;;;;18.65;9.23;;;5.70;99.90;;;;;;5007250;28;20057;-87
2024/01/17 12:15:46;;;;;;;20.45;9.52;;;5.70;99.90;;;;;;5017205;28;20044;-86
2024/01/17 12:18:11;;;;;;;18.98;8.32;;;5.70;99.90;;;;;;5016185;28;20567;-86
2024/01/17 12:20:38;;;;;;;20.02;8.93;;;5.70;99.90;;;;;;5015674;28;20112;-87
2024/01/17 12:23:07;;;;;;;16.77;8.88;;;5.70;99.90;;;;;;5014975;28;20028;-85
2024/01/17 12:25:33;;;;;;;15.95;9.20;;;5.70;99.90;;;;;;5010496;28;20021;-84
2024/01/17 12:28:02;;;;;;;20.15;9.65;;;5.70;99.90;;;;;;5017019;28;20052;-84
2024/01/17 12:30:28;;;;;;;19.08;9.68;;;5.70;99.90;;;;;;5029390;28;20022;-83
2024/01/17 12:32:54;;;;;;;21.25;9.18;;;5.70;99.90;;;;;;5032056;28;20505;-87
2024/01/17 12:35:20;;;;;;;18.80;9.77;;;5.70;99.90;;;;;;5027783;28;20510;-84
2024/01/17 12:37:46;;;;;;;19.60;10.02;;;5.70;99.90;;;;;;5042273;28;20029;-83